createdAt,value
2019-03-20T00:02:07.403Z,62.30
2019-03-20T00:04:49.660Z,62.10
2019-03-20T00:09:54.121Z,62.10
2019-03-20T00:12:25.403Z,62.40
2019-03-20T00:15:29.376Z,62.20
2019-03-20T00:18:03.649Z,62.10
2019-03-20T00:23:15.025Z,62.70
2019-03-20T00:32:49.078Z,62.70
2019-03-20T00:35:22.602Z,63.20
2019-03-20T00:37:54.256Z,63.90
2019-03-20T00:40:34.653Z,65.00
2019-03-20T00:43:06.061Z,64.10
2019-03-20T00:45:40.776Z,63.50
2019-03-20T00:48:12.362Z,63.90
2019-03-20T00:50:44.790Z,64.00
2019-03-20T00:53:18.596Z,64.00
2019-03-20T00:56:31.840Z,63.60
2019-03-20T00:59:03.479Z,63.20
2019-03-20T01:01:33.923Z,63.70
2019-03-20T01:04:17.048Z,64.10
2019-03-20T01:06:51.135Z,63.70
2019-03-20T01:16:51.896Z,64.10
2019-03-20T01:19:25.607Z,65.00
2019-03-20T01:21:56.785Z,64.40
2019-03-20T01:31:06.383Z,64.30
2019-03-20T01:33:39.036Z,64.60
2019-03-20T01:36:36.171Z,64.50
2019-03-20T01:39:12.103Z,65.20
2019-03-20T01:41:47.756Z,64.60
2019-03-20T01:44:26.564Z,64.70
2019-03-20T01:46:57.310Z,64.80
2019-03-20T01:50:08.161Z,64.90
2019-03-20T01:52:40.182Z,64.90
2019-03-20T01:55:14.055Z,65.30
2019-03-20T01:57:52.754Z,65.70
2019-03-20T02:00:28.619Z,65.80
2019-03-20T02:03:34.913Z,65.80
2019-03-20T02:06:13.772Z,65.00
2019-03-20T02:08:46.053Z,65.50
2019-03-20T02:11:18.316Z,65.50
2019-03-20T02:13:50.813Z,65.80
2019-03-20T02:16:24.313Z,65.20
2019-03-20T02:19:07.762Z,65.20
2019-03-20T02:21:40.302Z,65.10
2019-03-20T02:24:14.964Z,65.60
2019-03-20T02:26:46.777Z,65.70
2019-03-20T02:29:18.229Z,65.30
2019-03-20T02:31:54.216Z,65.30
2019-03-20T02:34:27.925Z,65.40
2019-03-20T02:37:01.033Z,65.70
2019-03-20T02:39:35.751Z,65.50
2019-03-20T02:42:08.251Z,65.20
2019-03-20T02:44:41.338Z,65.30
2019-03-20T02:47:13.358Z,65.50
2019-03-20T02:49:46.163Z,65.80
2019-03-20T02:52:19.316Z,65.80
2019-03-20T02:55:11.581Z,66.30
2019-03-20T02:57:51.331Z,66.50
2019-03-20T03:00:26.589Z,66.00
2019-03-20T03:03:00.416Z,65.90
2019-03-20T03:05:33.416Z,66.20
2019-03-20T03:08:08.357Z,65.10
2019-03-20T03:10:39.560Z,65.10
2019-03-20T03:13:12.190Z,64.90
2019-03-20T03:15:43.365Z,64.90
2019-03-20T03:18:17.346Z,65.00
2019-03-20T03:20:48.390Z,65.10
2019-03-20T03:23:29.508Z,64.70
2019-03-20T03:26:01.083Z,64.90
2019-03-20T03:28:32.262Z,64.40
2019-03-20T03:33:53.746Z,66.80
2019-03-20T03:36:26.895Z,64.30
2019-03-20T03:39:00.269Z,64.40
2019-03-20T03:41:33.273Z,64.20
2019-03-20T03:44:14.461Z,63.90
2019-03-20T03:46:48.013Z,63.50
2019-03-20T03:49:19.217Z,64.50
2019-03-20T03:51:54.063Z,65.00
2019-03-20T03:54:27.281Z,65.30
2019-03-20T03:56:59.988Z,65.50
2019-03-20T03:59:36.426Z,65.10
2019-03-20T04:02:09.029Z,65.00
2019-03-20T04:04:44.087Z,65.00
2019-03-20T04:07:16.084Z,64.90
2019-03-20T04:09:53.183Z,64.60
2019-03-20T04:12:26.223Z,65.00
2019-03-20T04:15:05.247Z,64.80
2019-03-20T04:17:35.136Z,64.60
2019-03-20T04:20:07.557Z,64.30
2019-03-20T04:22:42.892Z,64.50
2019-03-20T04:25:14.530Z,64.40
2019-03-20T04:27:57.041Z,64.40
2019-03-20T04:30:29.048Z,64.70
2019-03-20T04:33:00.809Z,64.50
2019-03-20T04:35:33.667Z,64.80
2019-03-20T04:38:04.419Z,64.70
2019-03-20T04:40:34.795Z,64.30
2019-03-20T04:43:09.672Z,64.10
2019-03-20T04:45:41.523Z,64.90
2019-03-20T04:48:13.296Z,64.80
2019-03-20T04:50:53.792Z,67.00
2019-03-20T04:53:30.302Z,64.60
2019-03-20T04:56:09.687Z,64.20
2019-03-20T04:58:45.306Z,63.70
2019-03-20T05:01:26.681Z,63.80
2019-03-20T05:03:58.104Z,64.30
2019-03-20T05:06:31.306Z,63.30
2019-03-20T05:09:22.579Z,63.30
2019-03-20T05:11:55.426Z,63.70
2019-03-20T05:14:26.087Z,63.50
2019-03-20T05:16:57.630Z,63.10
2019-03-20T05:19:32.167Z,62.50
2019-03-20T05:24:55.579Z,62.70
2019-03-20T05:27:27.266Z,63.30
2019-03-20T05:29:59.114Z,63.50
2019-03-20T05:32:31.956Z,63.90
2019-03-20T05:35:04.395Z,64.10
2019-03-20T05:37:42.152Z,63.70
2019-03-20T05:40:18.638Z,64.30
2019-03-20T05:42:52.635Z,64.60
2019-03-20T05:45:26.471Z,64.90
2019-03-20T05:47:58.484Z,64.80
2019-03-20T05:50:27.558Z,64.40
2019-03-20T05:53:04.805Z,65.10
2019-03-20T05:55:38.528Z,65.40
2019-03-20T05:58:11.794Z,65.40
2019-03-20T06:00:45.687Z,65.10
2019-03-20T06:03:15.942Z,65.00
2019-03-20T06:05:49.067Z,65.80
2019-03-20T06:08:21.647Z,64.00
2019-03-20T06:10:58.585Z,63.90
2019-03-20T06:13:33.856Z,63.90
2019-03-20T06:16:05.853Z,64.00
2019-03-20T06:18:42.616Z,64.20
2019-03-20T06:21:17.788Z,63.50
2019-03-20T06:24:03.454Z,64.50
2019-03-20T06:26:41.493Z,64.00
2019-03-20T06:29:16.447Z,63.90
2019-03-20T06:31:53.317Z,62.50
2019-03-20T06:34:28.466Z,63.20
2019-03-20T06:36:58.971Z,63.30
2019-03-20T06:39:36.472Z,63.00
2019-03-20T06:42:11.077Z,63.00
2019-03-20T06:44:48.356Z,62.60
2019-03-20T06:47:27.233Z,62.30
2019-03-20T06:50:02.433Z,62.10
2019-03-20T06:52:47.307Z,62.20
2019-03-20T06:55:30.019Z,62.00
2019-03-20T06:57:59.663Z,62.00
2019-03-20T07:00:45.678Z,62.40
2019-03-20T07:03:30.100Z,62.10
2019-03-20T07:06:21.077Z,62.40
2019-03-20T07:09:08.595Z,62.20
2019-03-20T07:11:43.436Z,62.30
2019-03-20T07:14:22.534Z,62.60
2019-03-20T07:17:00.803Z,62.60
2019-03-20T07:19:35.101Z,62.60
2019-03-20T07:22:26.882Z,62.30
2019-03-20T07:25:10.071Z,62.50
2019-03-20T07:27:48.641Z,62.20
2019-03-20T07:30:28.151Z,61.90
2019-03-20T07:33:09.692Z,61.80
2019-03-20T07:35:49.409Z,61.40
2019-03-20T07:38:24.755Z,61.50
2019-03-20T07:41:00.660Z,61.70
2019-03-20T07:43:36.483Z,61.40
2019-03-20T07:46:10.790Z,61.10
2019-03-20T07:48:48.605Z,61.20
2019-03-20T07:51:26.443Z,61.70
2019-03-20T07:53:58.926Z,61.40
2019-03-20T07:56:34.938Z,61.50
2019-03-20T07:59:07.641Z,61.50
2019-03-20T08:01:37.870Z,61.10
2019-03-20T08:04:08.490Z,60.80
2019-03-20T08:06:43.056Z,60.70
2019-03-20T08:09:25.705Z,59.80
2019-03-20T08:11:59.249Z,58.00
2019-03-20T08:14:36.660Z,56.90
2019-03-20T08:17:08.515Z,57.00
2019-03-20T08:19:45.044Z,54.30
2019-03-20T08:22:21.249Z,53.90
2019-03-20T08:24:56.939Z,53.60
2019-03-20T08:27:33.883Z,53.30
2019-03-20T08:30:14.022Z,52.80
2019-03-20T08:32:48.131Z,53.00
2019-03-20T08:35:22.820Z,54.30
2019-03-20T08:38:01.160Z,54.60
2019-03-20T08:40:39.787Z,53.10
2019-03-20T08:43:14.045Z,52.40
2019-03-20T08:46:02.889Z,51.50
2019-03-20T08:48:49.894Z,51.00
2019-03-20T08:51:33.149Z,50.60
2019-03-20T08:54:06.700Z,50.00
2019-03-20T08:56:41.409Z,50.20
2019-03-20T08:59:38.420Z,49.20
2019-03-20T09:02:20.009Z,49.80
2019-03-20T09:04:52.357Z,49.80
2019-03-20T09:07:28.155Z,51.70
2019-03-20T09:10:02.607Z,52.40
2019-03-20T09:12:34.450Z,51.80
2019-03-20T09:15:06.782Z,51.90
2019-03-20T09:17:37.852Z,51.30
2019-03-20T09:20:18.225Z,50.90
2019-03-20T09:23:01.088Z,50.40
2019-03-20T09:25:36.573Z,49.50
2019-03-20T09:28:08.235Z,49.30
2019-03-20T09:30:55.434Z,50.00
2019-03-20T09:33:34.684Z,48.90
2019-03-20T09:36:03.787Z,48.80
2019-03-20T09:38:43.025Z,49.30
2019-03-20T09:41:09.344Z,48.40
2019-03-20T09:43:41.803Z,48.60
2019-03-20T09:46:12.291Z,49.20
2019-03-20T09:48:45.049Z,49.80
2019-03-20T09:51:20.472Z,49.20
2019-03-20T09:53:58.059Z,48.50
2019-03-20T09:56:39.789Z,47.60
2019-03-20T09:59:13.342Z,47.40
2019-03-20T10:01:49.190Z,46.80
2019-03-20T10:04:24.038Z,46.90
2019-03-20T10:07:00.430Z,47.40
2019-03-20T10:09:31.729Z,47.50
2019-03-20T10:12:10.918Z,47.10
2019-03-20T10:14:41.479Z,46.30
2019-03-20T10:17:18.533Z,46.10
2019-03-20T10:19:51.393Z,47.20
2019-03-20T10:22:30.244Z,45.80
2019-03-20T10:25:04.329Z,46.20
2019-03-20T10:27:36.087Z,47.20
2019-03-20T10:30:13.401Z,46.20
2019-03-20T10:32:50.937Z,45.80
2019-03-20T10:35:25.490Z,46.50
2019-03-20T10:38:10.571Z,46.90
2019-03-20T10:40:44.843Z,48.40
2019-03-20T10:43:20.607Z,48.00
2019-03-20T10:45:55.649Z,45.80
2019-03-20T10:48:46.273Z,46.20
2019-03-20T10:51:23.140Z,47.40
2019-03-20T10:53:59.515Z,47.80
2019-03-20T10:56:31.226Z,46.80
2019-03-20T10:59:21.691Z,45.90
2019-03-20T11:04:47.305Z,45.00
2019-03-20T11:07:18.612Z,43.80
2019-03-20T11:09:51.832Z,43.50
2019-03-20T11:12:24.853Z,43.20
2019-03-20T11:15:02.504Z,43.00
2019-03-20T11:17:37.792Z,43.30
2019-03-20T11:20:13.439Z,43.60
2019-03-20T11:22:57.660Z,43.20
2019-03-20T11:25:32.681Z,40.60
2019-03-20T11:28:06.160Z,41.10
2019-03-20T11:30:50.608Z,40.40
2019-03-20T11:33:24.705Z,40.70
2019-03-20T11:36:31.538Z,39.60
2019-03-20T11:39:09.232Z,40.20
2019-03-20T11:42:21.321Z,41.10
2019-03-20T11:45:05.456Z,40.80
2019-03-20T11:51:49.808Z,40.10
2019-03-20T11:54:30.535Z,41.90
2019-03-20T11:57:09.708Z,42.90
2019-03-20T11:59:44.693Z,43.60
2019-03-20T12:02:28.159Z,43.20
2019-03-20T12:08:08.773Z,43.50
2019-03-20T12:10:45.920Z,44.60
2019-03-20T12:13:22.430Z,43.60
2019-03-20T12:16:09.404Z,42.90
2019-03-20T12:18:47.042Z,42.10
2019-03-20T12:21:29.540Z,42.00
2019-03-20T12:24:12.041Z,42.20
2019-03-20T12:26:45.851Z,42.00
2019-03-20T12:29:24.104Z,41.40
2019-03-20T12:32:05.967Z,40.90
2019-03-20T12:34:38.209Z,41.10
2019-03-20T12:37:09.512Z,41.30
2019-03-20T12:39:53.117Z,41.70
2019-03-20T12:45:19.953Z,44.00
2019-03-20T12:47:52.566Z,42.40
2019-03-20T12:50:32.826Z,43.80
2019-03-20T12:53:04.774Z,42.60
2019-03-20T12:55:42.086Z,42.20
2019-03-20T12:58:16.371Z,41.10
2019-03-20T13:00:54.675Z,40.10
2019-03-20T13:03:34.232Z,40.80
2019-03-20T13:06:27.325Z,42.00
2019-03-20T13:09:08.725Z,41.30
2019-03-20T13:11:37.262Z,41.20
2019-03-20T13:14:11.079Z,42.10
2019-03-20T13:17:13.412Z,41.60
2019-03-20T13:19:14.095Z,42.20
2019-03-20T13:21:47.659Z,42.40
2019-03-20T13:24:29.994Z,40.20
2019-03-20T13:27:02.171Z,42.60
2019-03-20T13:29:37.988Z,42.80
2019-03-20T13:32:09.061Z,41.90
2019-03-20T13:34:49.815Z,42.50
2019-03-20T13:37:26.095Z,42.50
2019-03-20T13:40:01.905Z,42.90
2019-03-20T13:42:44.422Z,43.50
2019-03-20T13:45:22.024Z,43.40
2019-03-20T13:47:54.645Z,43.60
2019-03-20T13:50:25.338Z,42.90
2019-03-20T13:53:09.064Z,44.10
2019-03-20T13:55:58.849Z,43.80
2019-03-20T14:01:25.822Z,43.60
2019-03-20T14:03:54.527Z,43.70
2019-03-20T14:06:35.132Z,43.60
2019-03-20T14:09:09.810Z,43.60
2019-03-20T14:11:46.601Z,44.00
2019-03-20T14:14:30.707Z,44.00
2019-03-20T14:16:59.477Z,44.10
2019-03-20T14:19:31.200Z,43.30
2019-03-20T14:22:09.743Z,42.60
2019-03-20T14:24:38.681Z,44.20
2019-03-20T14:27:25.257Z,44.40
2019-03-20T14:30:00.635Z,43.60
2019-03-20T14:32:44.761Z,44.00
2019-03-20T14:35:20.916Z,45.00
2019-03-20T14:38:02.058Z,44.80
2019-03-20T14:40:39.473Z,45.20
2019-03-20T14:43:12.426Z,45.50
2019-03-20T14:45:55.435Z,45.80
2019-03-20T14:48:32.575Z,45.90
2019-03-20T14:51:10.508Z,46.30
2019-03-20T14:53:43.231Z,46.50
2019-03-20T14:56:18.285Z,46.60
2019-03-20T14:58:48.713Z,47.20
2019-03-20T15:01:18.877Z,47.40
2019-03-20T15:03:52.489Z,47.20
2019-03-20T15:06:26.917Z,47.10
2019-03-20T15:09:18.207Z,46.90
2019-03-20T15:12:02.087Z,46.90
2019-03-20T15:14:43.510Z,46.60
2019-03-20T15:17:15.869Z,46.50
2019-03-20T15:19:48.225Z,46.60
2019-03-20T15:22:19.418Z,46.40
2019-03-20T15:24:59.728Z,49.20
2019-03-20T15:27:30.325Z,47.10
2019-03-20T15:30:03.232Z,47.90
2019-03-20T15:32:47.905Z,48.20
2019-03-20T15:35:20.129Z,49.20
2019-03-20T15:37:56.935Z,49.10
2019-03-20T15:40:30.366Z,48.80
2019-03-20T15:43:09.028Z,48.70
2019-03-20T15:45:45.140Z,48.70
2019-03-20T15:48:25.785Z,48.70
2019-03-20T15:50:55.149Z,48.40
2019-03-20T15:53:27.466Z,48.60
2019-03-20T15:56:08.927Z,48.40
2019-03-20T15:58:47.938Z,49.30
2019-03-20T16:01:17.682Z,47.90
2019-03-20T16:03:55.598Z,50.50
2019-03-20T16:06:36.845Z,50.20
2019-03-20T16:09:10.217Z,50.00
2019-03-20T16:11:43.944Z,49.90
2019-03-20T16:14:15.589Z,49.90
2019-03-20T16:16:46.810Z,50.10
2019-03-20T16:19:18.418Z,49.90
2019-03-20T16:21:49.251Z,50.20
2019-03-20T16:24:26.844Z,50.60
2019-03-20T16:27:03.771Z,52.20
2019-03-20T16:29:34.268Z,50.40
2019-03-20T16:32:04.113Z,50.90
2019-03-20T16:34:38.223Z,50.50
2019-03-20T16:37:19.082Z,51.40
2019-03-20T16:39:51.838Z,50.40
2019-03-20T16:42:34.460Z,50.10
2019-03-20T16:45:10.855Z,50.60
2019-03-20T16:47:43.457Z,51.40
2019-03-20T16:50:21.829Z,51.30
2019-03-20T16:53:05.950Z,51.60
2019-03-20T16:55:36.505Z,51.90
2019-03-20T16:58:19.085Z,51.80
2019-03-20T17:01:03.593Z,51.80
2019-03-20T17:06:56.709Z,51.70
2019-03-20T17:09:30.820Z,51.40
2019-03-20T17:12:03.768Z,51.40
2019-03-20T17:17:29.888Z,51.40
2019-03-20T17:19:59.102Z,52.00
2019-03-20T17:22:28.435Z,52.20
2019-03-20T17:25:02.448Z,52.90
2019-03-20T17:27:50.418Z,53.00
2019-03-20T17:30:30.687Z,54.40
2019-03-20T17:33:02.743Z,53.40
2019-03-20T17:35:31.909Z,53.60
2019-03-20T17:38:05.548Z,53.60
2019-03-20T17:40:37.097Z,54.30
2019-03-20T17:43:08.671Z,54.40
2019-03-20T17:45:41.905Z,54.40
2019-03-20T17:48:18.790Z,54.60
2019-03-20T17:50:55.036Z,54.10
2019-03-20T17:53:26.295Z,55.00
2019-03-20T17:56:02.134Z,55.20
2019-03-20T17:58:34.485Z,55.40
2019-03-20T18:01:06.352Z,55.80
2019-03-20T18:04:00.206Z,55.90
2019-03-20T18:06:19.754Z,57.30
2019-03-20T18:08:50.486Z,56.40
2019-03-20T18:11:23.391Z,56.50
2019-03-20T18:13:56.456Z,56.20
2019-03-20T18:16:26.123Z,56.40
2019-03-20T18:18:59.203Z,56.80
2019-03-20T18:21:36.976Z,57.00
2019-03-20T18:24:10.256Z,55.00
2019-03-20T18:26:45.947Z,56.90
2019-03-20T18:29:16.665Z,56.90
2019-03-20T18:31:46.445Z,57.00
2019-03-20T18:34:21.359Z,57.40
2019-03-20T18:36:51.074Z,57.80
2019-03-20T18:39:26.281Z,59.00
2019-03-20T18:41:57.879Z,57.80
2019-03-20T18:44:30.216Z,57.50
2019-03-20T18:47:04.303Z,57.50
2019-03-20T18:49:36.276Z,57.80
2019-03-20T18:52:09.511Z,57.60
2019-03-20T18:54:42.391Z,57.70
2019-03-20T18:57:19.960Z,58.20
2019-03-20T18:59:50.384Z,58.80
2019-03-20T19:02:32.424Z,58.70
2019-03-20T19:05:11.269Z,58.90
2019-03-20T19:07:47.271Z,58.90
2019-03-20T19:10:17.730Z,58.50
2019-03-20T19:12:56.952Z,59.00
2019-03-20T19:15:26.947Z,59.20
2019-03-20T19:17:59.718Z,58.90
2019-03-20T19:20:31.732Z,58.70
2019-03-20T19:23:05.910Z,58.90
2019-03-20T19:25:46.914Z,59.00
2019-03-20T19:28:20.607Z,58.90
2019-03-20T19:30:58.605Z,58.70
2019-03-20T19:33:37.724Z,58.60
2019-03-20T19:36:15.970Z,58.30
2019-03-20T19:38:51.532Z,58.50
2019-03-20T19:41:27.053Z,58.90
2019-03-20T19:44:00.424Z,58.50
2019-03-20T19:46:38.745Z,60.30
2019-03-20T19:49:17.853Z,59.90
2019-03-20T19:52:35.164Z,59.20
2019-03-20T19:55:10.903Z,58.80
2019-03-20T19:57:43.004Z,58.60
2019-03-20T20:00:52.262Z,58.60
2019-03-20T20:03:33.645Z,58.70
2019-03-20T20:09:02.730Z,58.60
2019-03-20T20:11:37.537Z,58.60
2019-03-20T20:14:12.306Z,58.70
2019-03-20T20:16:41.482Z,58.60
2019-03-20T20:19:13.499Z,58.60
2019-03-20T20:21:46.123Z,58.80
2019-03-20T20:24:19.594Z,58.80
2019-03-20T20:26:52.438Z,58.90
2019-03-20T20:32:17.055Z,59.20
2019-03-20T20:34:50.749Z,59.30
2019-03-20T20:37:21.304Z,59.40
2019-03-20T20:39:57.047Z,58.90
2019-03-20T20:45:21.588Z,58.90
2019-03-20T20:47:53.038Z,59.10
2019-03-20T20:50:58.317Z,59.60
2019-03-20T20:53:39.270Z,59.10
2019-03-20T20:56:11.974Z,59.10
2019-03-20T20:59:15.771Z,59.30
2019-03-20T21:01:48.052Z,59.20
2019-03-20T21:04:23.529Z,59.10
2019-03-20T21:06:55.062Z,59.40
2019-03-20T21:09:24.709Z,60.60
2019-03-20T21:12:56.844Z,60.70
2019-03-20T21:15:35.223Z,60.90
2019-03-20T21:18:17.505Z,60.80
2019-03-20T21:20:51.143Z,61.70
2019-03-20T21:23:38.090Z,60.80
2019-03-20T21:33:51.376Z,61.30
2019-03-20T21:36:55.587Z,61.80
2019-03-20T21:39:58.806Z,61.80
2019-03-20T21:43:06.321Z,61.70
2019-03-20T21:45:36.203Z,62.00
2019-03-20T21:48:55.314Z,61.50
2019-03-20T21:51:28.063Z,61.40
2019-03-20T21:57:44.552Z,61.10
2019-03-20T22:03:49.222Z,61.70
2019-03-20T22:06:40.523Z,61.90
2019-03-20T22:09:11.098Z,61.80
2019-03-20T22:12:02.921Z,61.60
2019-03-20T22:15:18.697Z,61.90
2019-03-20T22:18:14.150Z,62.90
2019-03-20T22:21:19.948Z,61.40
2019-03-20T22:24:17.490Z,62.00
2019-03-20T22:30:11.596Z,61.80
2019-03-20T22:35:49.936Z,61.90
2019-03-20T22:38:23.457Z,62.50
2019-03-20T22:41:40.367Z,62.20
2019-03-20T22:44:12.016Z,62.40
2019-03-20T22:47:42.982Z,62.60
2019-03-20T22:50:31.509Z,63.90
2019-03-20T22:53:51.305Z,62.50
2019-03-20T22:56:49.808Z,62.50
2019-03-20T22:59:20.384Z,62.70
2019-03-20T23:02:15.325Z,62.90
2019-03-20T23:04:51.302Z,62.70
2019-03-20T23:08:30.668Z,62.90
2019-03-20T23:10:08.906Z,62.70
2019-03-20T23:12:40.767Z,62.10
2019-03-20T23:15:19.692Z,63.50
2019-03-20T23:17:51.451Z,62.80
2019-03-20T23:20:27.045Z,62.80
2019-03-20T23:23:06.107Z,62.40
2019-03-20T23:32:22.369Z,62.20
2019-03-20T23:34:54.201Z,63.00
2019-03-20T23:37:23.265Z,63.00
2019-03-20T23:39:52.348Z,63.30
2019-03-20T23:42:22.683Z,63.20
2019-03-20T23:45:28.515Z,63.10
2019-03-20T23:48:06.097Z,61.70
2019-03-20T23:50:37.887Z,60.90
2019-03-20T23:53:07.097Z,63.70
2019-03-20T23:55:43.202Z,63.10
2019-03-20T23:58:18.219Z,63.20
